sensor_id;sensor_type;location;lat;lon;timestamp;P1;durP1;ratioP1;P2;durP2;ratioP2
52124;SDS011;38119;52.710;6.398;2022-09-03T00:00:36;9.07;;;1.40;;
52124;SDS011;38119;52.710;6.398;2022-09-03T00:03:11;1.90;;;1.30;;
52124;SDS011;38119;52.710;6.398;2022-09-03T00:08:56;4.18;;;1.58;;
52124;SDS011;38119;52.710;6.398;2022-09-03T00:11:47;2.83;;;1.42;;
52124;SDS011;38119;52.710;6.398;2022-09-03T00:14:27;3.28;;;1.55;;
52124;SDS011;38119;52.710;6.398;2022-09-03T00:17:12;3.38;;;1.33;;
52124;SDS011;38119;52.710;6.398;2022-09-03T00:22:28;5.60;;;1.48;;
52124;SDS011;38119;52.710;6.398;2022-09-03T00:24:57;4.97;;;2.40;;
52124;SDS011;38119;52.710;6.398;2022-09-03T00:27:27;3.00;;;1.30;;
52124;SDS011;38119;52.710;6.398;2022-09-03T00:30:08;1.73;;;1.20;;
52124;SDS011;38119;52.710;6.398;2022-09-03T00:35:10;3.08;;;1.33;;
52124;SDS011;38119;52.710;6.398;2022-09-03T00:37:41;3.83;;;1.75;;
52124;SDS011;38119;52.710;6.398;2022-09-03T00:40:15;5.07;;;1.50;;
52124;SDS011;38119;52.710;6.398;2022-09-03T00:42:57;2.85;;;1.38;;
52124;SDS011;38119;52.710;6.398;2022-09-03T00:59:27;5.78;;;1.33;;
52124;SDS011;38119;52.710;6.398;2022-09-03T01:02:17;2.13;;;1.10;;
52124;SDS011;38119;52.710;6.398;2022-09-03T01:05:03;2.95;;;1.10;;
52124;SDS011;38119;52.710;6.398;2022-09-03T01:10:30;2.78;;;1.13;;
52124;SDS011;38119;52.710;6.398;2022-09-03T01:13:19;1.95;;;1.30;;
52124;SDS011;38119;52.710;6.398;2022-09-03T01:19:12;2.97;;;1.27;;
52124;SDS011;38119;52.710;6.398;2022-09-03T01:22:02;2.70;;;1.13;;
52124;SDS011;38119;52.710;6.398;2022-09-03T01:28:00;1.35;;;1.00;;
52124;SDS011;38119;52.710;6.398;2022-09-03T01:30:07;5.07;;;1.30;;
52124;SDS011;38119;52.710;6.398;2022-09-03T01:37:50;4.22;;;1.00;;
52124;SDS011;38119;52.710;6.398;2022-09-03T01:49:00;1.80;;;1.23;;
52124;SDS011;38119;52.710;6.398;2022-09-03T01:51:29;3.28;;;1.10;;
52124;SDS011;38119;52.710;6.398;2022-09-03T02:00:03;1.50;;;1.20;;
52124;SDS011;38119;52.710;6.398;2022-09-03T02:02:42;1.65;;;1.33;;
52124;SDS011;38119;52.710;6.398;2022-09-03T02:05:25;2.05;;;1.00;;
52124;SDS011;38119;52.710;6.398;2022-09-03T02:07:55;2.47;;;1.20;;
52124;SDS011;38119;52.710;6.398;2022-09-03T02:10:30;2.25;;;1.10;;
52124;SDS011;38119;52.710;6.398;2022-09-03T02:13:07;2.43;;;1.20;;
52124;SDS011;38119;52.710;6.398;2022-09-03T02:15:45;4.75;;;1.27;;
52124;SDS011;38119;52.710;6.398;2022-09-03T02:18:24;2.35;;;1.10;;
52124;SDS011;38119;52.710;6.398;2022-09-03T02:20:55;4.82;;;1.20;;
52124;SDS011;38119;52.710;6.398;2022-09-03T02:23:23;1.13;;;1.00;;
52124;SDS011;38119;52.710;6.398;2022-09-03T02:25:56;1.63;;;1.00;;
52124;SDS011;38119;52.710;6.398;2022-09-03T02:28:24;3.38;;;1.15;;
52124;SDS011;38119;52.710;6.398;2022-09-03T02:30:51;3.63;;;1.10;;
52124;SDS011;38119;52.710;6.398;2022-09-03T02:33:17;5.28;;;1.38;;
52124;SDS011;38119;52.710;6.398;2022-09-03T02:35:43;4.13;;;1.10;;
52124;SDS011;38119;52.710;6.398;2022-09-03T02:38:17;3.38;;;1.20;;
52124;SDS011;38119;52.710;6.398;2022-09-03T02:40:45;1.73;;;0.93;;
52124;SDS011;38119;52.710;6.398;2022-09-03T02:43:13;2.90;;;1.13;;
52124;SDS011;38119;52.710;6.398;2022-09-03T02:45:47;3.20;;;1.10;;
52124;SDS011;38119;52.710;6.398;2022-09-03T02:48:17;2.97;;;1.15;;
52124;SDS011;38119;52.710;6.398;2022-09-03T02:50:46;3.75;;;1.20;;
52124;SDS011;38119;52.710;6.398;2022-09-03T02:53:12;3.30;;;1.17;;
52124;SDS011;38119;52.710;6.398;2022-09-03T02:55:38;2.63;;;1.13;;
52124;SDS011;38119;52.710;6.398;2022-09-03T02:58:04;4.50;;;1.25;;
52124;SDS011;38119;52.710;6.398;2022-09-03T03:00:33;2.33;;;1.02;;
52124;SDS011;38119;52.710;6.398;2022-09-03T03:03:00;2.90;;;1.23;;
52124;SDS011;38119;52.710;6.398;2022-09-03T03:05:29;2.00;;;1.00;;
52124;SDS011;38119;52.710;6.398;2022-09-03T03:08:05;3.75;;;1.25;;
52124;SDS011;38119;52.710;6.398;2022-09-03T03:10:32;4.07;;;1.13;;
52124;SDS011;38119;52.710;6.398;2022-09-03T03:12:59;3.38;;;1.10;;
52124;SDS011;38119;52.710;6.398;2022-09-03T03:15:25;1.75;;;1.17;;
52124;SDS011;38119;52.710;6.398;2022-09-03T03:17:54;2.45;;;1.20;;
52124;SDS011;38119;52.710;6.398;2022-09-03T03:20:21;1.67;;;1.13;;
52124;SDS011;38119;52.710;6.398;2022-09-03T03:22:47;3.30;;;1.10;;
52124;SDS011;38119;52.710;6.398;2022-09-03T03:25:12;0.90;;;0.82;;
52124;SDS011;38119;52.710;6.398;2022-09-03T03:27:38;3.88;;;1.33;;
52124;SDS011;38119;52.710;6.398;2022-09-03T03:30:06;1.52;;;1.05;;
52124;SDS011;38119;52.710;6.398;2022-09-03T03:32:34;1.30;;;1.10;;
52124;SDS011;38119;52.710;6.398;2022-09-03T03:35:00;1.05;;;0.93;;
52124;SDS011;38119;52.710;6.398;2022-09-03T03:37:26;7.53;;;1.92;;
52124;SDS011;38119;52.710;6.398;2022-09-03T03:39:52;2.15;;;1.10;;
52124;SDS011;38119;52.710;6.398;2022-09-03T03:42:17;1.92;;;1.08;;
52124;SDS011;38119;52.710;6.398;2022-09-03T03:44:43;3.40;;;1.00;;
52124;SDS011;38119;52.710;6.398;2022-09-03T03:47:09;1.38;;;0.90;;
52124;SDS011;38119;52.710;6.398;2022-09-03T03:49:34;1.30;;;1.10;;
52124;SDS011;38119;52.710;6.398;2022-09-03T03:52:00;2.60;;;1.27;;
52124;SDS011;38119;52.710;6.398;2022-09-03T03:54:27;3.80;;;1.20;;
52124;SDS011;38119;52.710;6.398;2022-09-03T03:56:53;3.28;;;1.30;;
52124;SDS011;38119;52.710;6.398;2022-09-03T03:59:18;2.55;;;1.20;;
52124;SDS011;38119;52.710;6.398;2022-09-03T04:01:44;4.18;;;1.20;;
52124;SDS011;38119;52.710;6.398;2022-09-03T04:04:09;1.95;;;1.05;;
52124;SDS011;38119;52.710;6.398;2022-09-03T04:06:35;1.15;;;0.90;;
52124;SDS011;38119;52.710;6.398;2022-09-03T04:09:01;2.90;;;1.25;;
52124;SDS011;38119;52.710;6.398;2022-09-03T04:11:26;1.52;;;1.10;;
52124;SDS011;38119;52.710;6.398;2022-09-03T04:13:52;2.78;;;1.25;;
52124;SDS011;38119;52.710;6.398;2022-09-03T04:16:22;1.23;;;1.00;;
52124;SDS011;38119;52.710;6.398;2022-09-03T04:18:52;1.23;;;1.00;;
52124;SDS011;38119;52.710;6.398;2022-09-03T04:21:20;3.55;;;1.15;;
52124;SDS011;38119;52.710;6.398;2022-09-03T04:23:53;1.33;;;1.10;;
52124;SDS011;38119;52.710;6.398;2022-09-03T04:26:21;1.85;;;0.95;;
52124;SDS011;38119;52.710;6.398;2022-09-03T04:28:55;6.07;;;1.25;;
52124;SDS011;38119;52.710;6.398;2022-09-03T04:31:21;1.30;;;0.88;;
52124;SDS011;38119;52.710;6.398;2022-09-03T04:33:47;1.45;;;1.15;;
52124;SDS011;38119;52.710;6.398;2022-09-03T04:36:16;3.78;;;1.27;;
52124;SDS011;38119;52.710;6.398;2022-09-03T04:38:44;1.73;;;1.25;;
52124;SDS011;38119;52.710;6.398;2022-09-03T04:41:12;2.53;;;1.20;;
52124;SDS011;38119;52.710;6.398;2022-09-03T04:43:39;1.40;;;1.08;;
52124;SDS011;38119;52.710;6.398;2022-09-03T04:46:07;3.17;;;1.00;;
52124;SDS011;38119;52.710;6.398;2022-09-03T04:48:34;2.20;;;1.02;;
52124;SDS011;38119;52.710;6.398;2022-09-03T04:51:04;2.28;;;1.17;;
52124;SDS011;38119;52.710;6.398;2022-09-03T04:53:36;2.70;;;1.10;;
52124;SDS011;38119;52.710;6.398;2022-09-03T04:56:10;2.67;;;1.27;;
52124;SDS011;38119;52.710;6.398;2022-09-03T04:58:37;1.63;;;1.10;;
52124;SDS011;38119;52.710;6.398;2022-09-03T05:01:07;2.55;;;1.30;;
52124;SDS011;38119;52.710;6.398;2022-09-03T05:03:37;1.52;;;1.20;;
52124;SDS011;38119;52.710;6.398;2022-09-03T05:06:03;1.85;;;1.25;;
52124;SDS011;38119;52.710;6.398;2022-09-03T05:08:30;1.55;;;1.10;;
52124;SDS011;38119;52.710;6.398;2022-09-03T05:10:59;2.40;;;1.00;;
52124;SDS011;38119;52.710;6.398;2022-09-03T05:13:25;3.95;;;1.13;;
52124;SDS011;38119;52.710;6.398;2022-09-03T05:15:52;1.75;;;1.20;;
52124;SDS011;38119;52.710;6.398;2022-09-03T05:18:30;1.85;;;1.25;;
52124;SDS011;38119;52.710;6.398;2022-09-03T05:20:57;1.30;;;1.05;;
52124;SDS011;38119;52.710;6.398;2022-09-03T05:23:27;2.40;;;1.27;;
52124;SDS011;38119;52.710;6.398;2022-09-03T05:25:58;2.70;;;1.05;;
52124;SDS011;38119;52.710;6.398;2022-09-03T05:28:25;3.05;;;1.00;;
52124;SDS011;38119;52.710;6.398;2022-09-03T05:33:28;2.60;;;1.10;;
52124;SDS011;38119;52.710;6.398;2022-09-03T05:36:01;3.33;;;1.40;;
52124;SDS011;38119;52.710;6.398;2022-09-03T05:38:28;2.08;;;1.27;;
52124;SDS011;38119;52.710;6.398;2022-09-03T05:40:56;2.35;;;1.33;;
52124;SDS011;38119;52.710;6.398;2022-09-03T05:43:24;2.47;;;1.25;;
52124;SDS011;38119;52.710;6.398;2022-09-03T05:45:50;2.33;;;1.20;;
52124;SDS011;38119;52.710;6.398;2022-09-03T05:48:16;4.78;;;1.20;;
52124;SDS011;38119;52.710;6.398;2022-09-03T05:50:42;1.60;;;1.30;;
52124;SDS011;38119;52.710;6.398;2022-09-03T05:53:07;1.88;;;1.10;;
52124;SDS011;38119;52.710;6.398;2022-09-03T05:55:33;2.22;;;1.40;;
52124;SDS011;38119;52.710;6.398;2022-09-03T05:57:58;2.28;;;1.20;;
52124;SDS011;38119;52.710;6.398;2022-09-03T06:00:24;1.88;;;1.30;;
52124;SDS011;38119;52.710;6.398;2022-09-03T06:02:50;4.70;;;1.38;;
52124;SDS011;38119;52.710;6.398;2022-09-03T06:05:17;1.63;;;1.10;;
52124;SDS011;38119;52.710;6.398;2022-09-03T06:07:43;2.25;;;1.35;;
52124;SDS011;38119;52.710;6.398;2022-09-03T06:10:12;1.52;;;1.25;;
52124;SDS011;38119;52.710;6.398;2022-09-03T06:12:40;2.45;;;1.23;;
52124;SDS011;38119;52.710;6.398;2022-09-03T06:15:05;2.40;;;1.20;;
52124;SDS011;38119;52.710;6.398;2022-09-03T06:17:31;1.95;;;1.30;;
52124;SDS011;38119;52.710;6.398;2022-09-03T06:19:57;3.17;;;1.20;;
52124;SDS011;38119;52.710;6.398;2022-09-03T06:22:22;4.85;;;1.20;;
52124;SDS011;38119;52.710;6.398;2022-09-03T06:24:49;2.67;;;1.23;;
52124;SDS011;38119;52.710;6.398;2022-09-03T06:27:15;3.60;;;1.30;;
52124;SDS011;38119;52.710;6.398;2022-09-03T06:29:40;1.63;;;1.20;;
52124;SDS011;38119;52.710;6.398;2022-09-03T06:32:06;2.15;;;1.23;;
52124;SDS011;38119;52.710;6.398;2022-09-03T06:34:32;2.63;;;1.30;;
52124;SDS011;38119;52.710;6.398;2022-09-03T06:36:57;3.00;;;1.27;;
52124;SDS011;38119;52.710;6.398;2022-09-03T06:39:23;2.65;;;1.40;;
52124;SDS011;38119;52.710;6.398;2022-09-03T06:41:49;2.20;;;1.30;;
52124;SDS011;38119;52.710;6.398;2022-09-03T06:44:17;1.85;;;1.30;;
52124;SDS011;38119;52.710;6.398;2022-09-03T06:46:42;2.08;;;1.20;;
52124;SDS011;38119;52.710;6.398;2022-09-03T06:49:08;7.50;;;1.60;;
52124;SDS011;38119;52.710;6.398;2022-09-03T06:51:35;6.75;;;1.60;;
52124;SDS011;38119;52.710;6.398;2022-09-03T06:54:04;2.97;;;1.63;;
52124;SDS011;38119;52.710;6.398;2022-09-03T06:56:35;1.48;;;1.15;;
52124;SDS011;38119;52.710;6.398;2022-09-03T06:59:09;1.98;;;1.20;;
52124;SDS011;38119;52.710;6.398;2022-09-03T07:01:36;2.80;;;1.42;;
52124;SDS011;38119;52.710;6.398;2022-09-03T07:04:04;4.55;;;1.48;;
52124;SDS011;38119;52.710;6.398;2022-09-03T07:06:37;3.78;;;1.80;;
52124;SDS011;38119;52.710;6.398;2022-09-03T07:09:05;2.22;;;1.40;;
52124;SDS011;38119;52.710;6.398;2022-09-03T07:11:31;3.15;;;1.40;;
52124;SDS011;38119;52.710;6.398;2022-09-03T07:14:03;2.50;;;1.40;;
52124;SDS011;38119;52.710;6.398;2022-09-03T07:16:31;2.83;;;1.35;;
52124;SDS011;38119;52.710;6.398;2022-09-03T07:19:01;2.42;;;1.58;;
52124;SDS011;38119;52.710;6.398;2022-09-03T07:21:28;2.08;;;1.27;;
52124;SDS011;38119;52.710;6.398;2022-09-03T07:23:55;3.40;;;1.60;;
52124;SDS011;38119;52.710;6.398;2022-09-03T07:28:52;2.95;;;1.48;;
52124;SDS011;38119;52.710;6.398;2022-09-03T07:31:22;3.50;;;1.48;;
52124;SDS011;38119;52.710;6.398;2022-09-03T07:34:00;3.80;;;1.38;;
52124;SDS011;38119;52.710;6.398;2022-09-03T07:36:30;2.65;;;1.60;;
52124;SDS011;38119;52.710;6.398;2022-09-03T07:39:02;2.33;;;1.42;;
52124;SDS011;38119;52.710;6.398;2022-09-03T07:41:29;6.32;;;1.70;;
52124;SDS011;38119;52.710;6.398;2022-09-03T07:43:57;4.28;;;1.50;;
52124;SDS011;38119;52.710;6.398;2022-09-03T07:46:25;4.15;;;1.60;;
52124;SDS011;38119;52.710;6.398;2022-09-03T07:48:52;4.53;;;1.88;;
52124;SDS011;38119;52.710;6.398;2022-09-03T07:51:20;4.00;;;1.50;;
52124;SDS011;38119;52.710;6.398;2022-09-03T07:53:51;2.63;;;1.60;;
52124;SDS011;38119;52.710;6.398;2022-09-03T07:56:19;3.85;;;1.58;;
52124;SDS011;38119;52.710;6.398;2022-09-03T07:58:45;3.20;;;1.60;;
52124;SDS011;38119;52.710;6.398;2022-09-03T08:01:13;2.38;;;1.27;;
52124;SDS011;38119;52.710;6.398;2022-09-03T08:03:42;2.88;;;1.50;;
52124;SDS011;38119;52.710;6.398;2022-09-03T08:06:10;2.20;;;1.48;;
52124;SDS011;38119;52.710;6.398;2022-09-03T08:08:36;3.35;;;1.60;;
52124;SDS011;38119;52.710;6.398;2022-09-03T08:11:02;3.53;;;1.75;;
52124;SDS011;38119;52.710;6.398;2022-09-03T08:13:42;4.50;;;1.70;;
52124;SDS011;38119;52.710;6.398;2022-09-03T08:16:09;1.90;;;1.52;;
52124;SDS011;38119;52.710;6.398;2022-09-03T08:18:37;3.10;;;1.50;;
52124;SDS011;38119;52.710;6.398;2022-09-03T08:21:07;4.13;;;1.98;;
52124;SDS011;38119;52.710;6.398;2022-09-03T08:23:38;4.10;;;1.50;;
52124;SDS011;38119;52.710;6.398;2022-09-03T08:26:04;2.47;;;1.40;;
52124;SDS011;38119;52.710;6.398;2022-09-03T08:28:31;1.48;;;1.25;;
52124;SDS011;38119;52.710;6.398;2022-09-03T08:31:08;7.47;;;2.40;;
52124;SDS011;38119;52.710;6.398;2022-09-03T08:33:36;3.50;;;1.40;;
52124;SDS011;38119;52.710;6.398;2022-09-03T08:36:03;5.97;;;1.50;;
52124;SDS011;38119;52.710;6.398;2022-09-03T08:38:31;2.83;;;1.60;;
52124;SDS011;38119;52.710;6.398;2022-09-03T08:41:02;2.72;;;1.60;;
52124;SDS011;38119;52.710;6.398;2022-09-03T08:43:33;3.58;;;1.63;;
52124;SDS011;38119;52.710;6.398;2022-09-03T08:46:16;5.43;;;1.35;;
52124;SDS011;38119;52.710;6.398;2022-09-03T08:48:42;4.05;;;1.25;;
52124;SDS011;38119;52.710;6.398;2022-09-03T08:51:07;2.38;;;1.30;;
52124;SDS011;38119;52.710;6.398;2022-09-03T08:53:39;4.00;;;1.20;;
52124;SDS011;38119;52.710;6.398;2022-09-03T08:56:17;3.05;;;1.38;;
52124;SDS011;38119;52.710;6.398;2022-09-03T08:58:55;4.43;;;1.48;;
52124;SDS011;38119;52.710;6.398;2022-09-03T09:01:36;6.38;;;1.40;;
52124;SDS011;38119;52.710;6.398;2022-09-03T09:09:57;3.08;;;1.55;;
52124;SDS011;38119;52.710;6.398;2022-09-03T09:20:52;2.30;;;1.50;;
52124;SDS011;38119;52.710;6.398;2022-09-03T09:25:53;3.92;;;1.33;;
52124;SDS011;38119;52.710;6.398;2022-09-03T09:28:28;6.05;;;1.52;;
52124;SDS011;38119;52.710;6.398;2022-09-03T09:30:58;8.07;;;1.30;;
52124;SDS011;38119;52.710;6.398;2022-09-03T09:33:28;2.25;;;1.40;;
52124;SDS011;38119;52.710;6.398;2022-09-03T09:36:00;2.85;;;1.30;;
52124;SDS011;38119;52.710;6.398;2022-09-03T09:38:31;2.40;;;1.35;;
52124;SDS011;38119;52.710;6.398;2022-09-03T09:41:13;3.10;;;1.30;;
52124;SDS011;38119;52.710;6.398;2022-09-03T09:43:39;4.28;;;1.38;;
52124;SDS011;38119;52.710;6.398;2022-09-03T09:48:55;3.40;;;1.38;;
52124;SDS011;38119;52.710;6.398;2022-09-03T09:51:26;2.95;;;1.27;;
52124;SDS011;38119;52.710;6.398;2022-09-03T09:54:38;3.30;;;1.67;;
52124;SDS011;38119;52.710;6.398;2022-09-03T09:57:05;2.20;;;1.30;;
52124;SDS011;38119;52.710;6.398;2022-09-03T09:59:33;4.67;;;1.40;;
52124;SDS011;38119;52.710;6.398;2022-09-03T10:02:06;2.70;;;1.55;;
52124;SDS011;38119;52.710;6.398;2022-09-03T10:04:35;3.53;;;1.45;;
52124;SDS011;38119;52.710;6.398;2022-09-03T10:07:03;4.28;;;1.40;;
52124;SDS011;38119;52.710;6.398;2022-09-03T10:09:43;3.85;;;1.50;;
52124;SDS011;38119;52.710;6.398;2022-09-03T10:14:59;2.65;;;1.50;;
52124;SDS011;38119;52.710;6.398;2022-09-03T10:17:41;2.97;;;1.20;;
52124;SDS011;38119;52.710;6.398;2022-09-03T10:25:39;2.15;;;1.30;;
52124;SDS011;38119;52.710;6.398;2022-09-03T10:28:38;3.05;;;1.20;;
52124;SDS011;38119;52.710;6.398;2022-09-03T10:31:14;3.40;;;1.40;;
52124;SDS011;38119;52.710;6.398;2022-09-03T10:34:08;5.00;;;1.50;;
52124;SDS011;38119;52.710;6.398;2022-09-03T10:39:42;2.03;;;1.45;;
52124;SDS011;38119;52.710;6.398;2022-09-03T10:42:47;6.45;;;1.40;;
52124;SDS011;38119;52.710;6.398;2022-09-03T10:48:12;1.80;;;1.33;;
52124;SDS011;38119;52.710;6.398;2022-09-03T10:50:58;1.88;;;1.33;;
52124;SDS011;38119;52.710;6.398;2022-09-03T10:56:30;3.72;;;1.40;;
52124;SDS011;38119;52.710;6.398;2022-09-03T11:02:28;3.63;;;1.33;;
52124;SDS011;38119;52.710;6.398;2022-09-03T11:05:18;2.55;;;1.40;;
52124;SDS011;38119;52.710;6.398;2022-09-03T11:08:01;3.38;;;1.30;;
52124;SDS011;38119;52.710;6.398;2022-09-03T11:10:40;6.75;;;1.40;;
52124;SDS011;38119;52.710;6.398;2022-09-03T11:13:11;4.28;;;1.30;;
52124;SDS011;38119;52.710;6.398;2022-09-03T11:20:43;3.15;;;1.30;;
52124;SDS011;38119;52.710;6.398;2022-09-03T11:23:09;1.77;;;1.20;;
52124;SDS011;38119;52.710;6.398;2022-09-03T11:25:41;1.88;;;1.30;;
52124;SDS011;38119;52.710;6.398;2022-09-03T11:31:04;2.00;;;1.40;;
52124;SDS011;38119;52.710;6.398;2022-09-03T11:33:44;2.45;;;1.30;;
52124;SDS011;38119;52.710;6.398;2022-09-03T11:36:13;3.25;;;1.40;;
52124;SDS011;38119;52.710;6.398;2022-09-03T11:38:52;3.00;;;1.42;;
52124;SDS011;38119;52.710;6.398;2022-09-03T11:43:46;1.35;;;1.25;;
52124;SDS011;38119;52.710;6.398;2022-09-03T11:46:25;2.70;;;1.40;;
52124;SDS011;38119;52.710;6.398;2022-09-03T11:48:53;1.50;;;1.30;;
52124;SDS011;38119;52.710;6.398;2022-09-03T11:53:53;2.08;;;1.40;;
52124;SDS011;38119;52.710;6.398;2022-09-03T11:56:24;1.27;;;1.17;;
52124;SDS011;38119;52.710;6.398;2022-09-03T12:01:24;2.95;;;1.30;;
52124;SDS011;38119;52.710;6.398;2022-09-03T12:04:02;3.00;;;1.10;;
52124;SDS011;38119;52.710;6.398;2022-09-03T12:17:58;1.50;;;1.40;;
52124;SDS011;38119;52.710;6.398;2022-09-03T12:20:44;1.40;;;1.30;;
52124;SDS011;38119;52.710;6.398;2022-09-03T12:23:24;1.65;;;1.20;;
52124;SDS011;38119;52.710;6.398;2022-09-03T12:25:53;3.67;;;1.30;;
52124;SDS011;38119;52.710;6.398;2022-09-03T12:28:21;1.48;;;1.38;;
52124;SDS011;38119;52.710;6.398;2022-09-03T12:30:49;2.05;;;1.35;;
52124;SDS011;38119;52.710;6.398;2022-09-03T12:33:17;1.35;;;1.20;;
52124;SDS011;38119;52.710;6.398;2022-09-03T12:35:58;1.77;;;1.27;;
52124;SDS011;38119;52.710;6.398;2022-09-03T12:38:28;3.20;;;1.30;;
52124;SDS011;38119;52.710;6.398;2022-09-03T12:40:56;4.07;;;1.23;;
52124;SDS011;38119;52.710;6.398;2022-09-03T12:43:26;2.15;;;1.20;;
52124;SDS011;38119;52.710;6.398;2022-09-03T12:45:53;2.95;;;1.30;;
52124;SDS011;38119;52.710;6.398;2022-09-03T12:48:19;9.50;;;1.30;;
52124;SDS011;38119;52.710;6.398;2022-09-03T12:50:46;1.50;;;1.20;;
52124;SDS011;38119;52.710;6.398;2022-09-03T12:53:15;1.33;;;1.10;;
52124;SDS011;38119;52.710;6.398;2022-09-03T12:55:52;1.67;;;1.30;;
52124;SDS011;38119;52.710;6.398;2022-09-03T12:58:23;1.90;;;1.27;;
52124;SDS011;38119;52.710;6.398;2022-09-03T13:01:24;2.33;;;1.13;;
52124;SDS011;38119;52.710;6.398;2022-09-03T13:04:03;2.70;;;1.30;;
52124;SDS011;38119;52.710;6.398;2022-09-03T13:06:44;2.17;;;1.30;;
52124;SDS011;38119;52.710;6.398;2022-09-03T13:09:25;1.40;;;1.30;;
52124;SDS011;38119;52.710;6.398;2022-09-03T13:11:54;2.10;;;1.52;;
52124;SDS011;38119;52.710;6.398;2022-09-03T13:14:20;2.70;;;1.25;;
52124;SDS011;38119;52.710;6.398;2022-09-03T13:19:24;7.78;;;1.65;;
52124;SDS011;38119;52.710;6.398;2022-09-03T13:22:29;2.20;;;1.42;;
52124;SDS011;38119;52.710;6.398;2022-09-03T13:30:09;1.40;;;1.30;;
52124;SDS011;38119;52.710;6.398;2022-09-03T13:33:06;3.22;;;1.27;;
52124;SDS011;38119;52.710;6.398;2022-09-03T13:35:50;5.32;;;1.45;;
52124;SDS011;38119;52.710;6.398;2022-09-03T13:38:38;4.30;;;1.40;;
52124;SDS011;38119;52.710;6.398;2022-09-03T13:44:17;1.77;;;1.40;;
52124;SDS011;38119;52.710;6.398;2022-09-03T13:49:48;3.38;;;1.50;;
52124;SDS011;38119;52.710;6.398;2022-09-03T13:52:36;3.50;;;1.30;;
52124;SDS011;38119;52.710;6.398;2022-09-03T13:57:48;3.47;;;1.40;;
52124;SDS011;38119;52.710;6.398;2022-09-03T14:00:51;4.05;;;1.30;;
52124;SDS011;38119;52.710;6.398;2022-09-03T14:03:16;1.83;;;1.35;;
52124;SDS011;38119;52.710;6.398;2022-09-03T14:08:52;2.78;;;1.33;;
52124;SDS011;38119;52.710;6.398;2022-09-03T14:11:31;4.07;;;1.40;;
52124;SDS011;38119;52.710;6.398;2022-09-03T14:16:55;3.53;;;1.40;;
52124;SDS011;38119;52.710;6.398;2022-09-03T14:19:47;1.77;;;1.30;;
52124;SDS011;38119;52.710;6.398;2022-09-03T14:24:56;1.63;;;1.30;;
52124;SDS011;38119;52.710;6.398;2022-09-03T14:27:30;5.63;;;1.40;;
52124;SDS011;38119;52.710;6.398;2022-09-03T14:38:19;2.15;;;1.10;;
52124;SDS011;38119;52.710;6.398;2022-09-03T14:41:00;3.70;;;1.40;;
52124;SDS011;38119;52.710;6.398;2022-09-03T14:46:38;3.45;;;1.30;;
52124;SDS011;38119;52.710;6.398;2022-09-03T14:55:06;1.45;;;1.30;;
52124;SDS011;38119;52.710;6.398;2022-09-03T15:00:32;2.30;;;1.38;;
52124;SDS011;38119;52.710;6.398;2022-09-03T15:09:41;1.55;;;1.30;;
52124;SDS011;38119;52.710;6.398;2022-09-03T15:12:32;1.75;;;1.30;;
52124;SDS011;38119;52.710;6.398;2022-09-03T15:15:51;3.60;;;1.23;;
52124;SDS011;38119;52.710;6.398;2022-09-03T15:20:50;1.63;;;1.40;;
52124;SDS011;38119;52.710;6.398;2022-09-03T15:31:39;2.80;;;1.40;;
52124;SDS011;38119;52.710;6.398;2022-09-03T15:36:50;2.15;;;1.25;;
52124;SDS011;38119;52.710;6.398;2022-09-03T15:39:33;2.78;;;1.23;;
52124;SDS011;38119;52.710;6.398;2022-09-03T15:44:52;3.10;;;1.42;;
52124;SDS011;38119;52.710;6.398;2022-09-03T15:47:29;2.35;;;1.25;;
52124;SDS011;38119;52.710;6.398;2022-09-03T15:53:00;3.08;;;1.70;;
52124;SDS011;38119;52.710;6.398;2022-09-03T15:55:49;2.47;;;1.45;;
52124;SDS011;38119;52.710;6.398;2022-09-03T15:58:56;2.60;;;1.30;;
52124;SDS011;38119;52.710;6.398;2022-09-03T16:04:38;3.15;;;1.48;;
52124;SDS011;38119;52.710;6.398;2022-09-03T16:07:39;2.35;;;1.20;;
52124;SDS011;38119;52.710;6.398;2022-09-03T16:10:32;2.45;;;1.23;;
52124;SDS011;38119;52.710;6.398;2022-09-03T16:13:31;2.15;;;1.35;;
52124;SDS011;38119;52.710;6.398;2022-09-03T16:19:10;3.38;;;1.30;;
52124;SDS011;38119;52.710;6.398;2022-09-03T16:24:43;4.97;;;1.90;;
52124;SDS011;38119;52.710;6.398;2022-09-03T16:27:19;2.25;;;1.45;;
52124;SDS011;38119;52.710;6.398;2022-09-03T16:30:10;3.58;;;1.50;;
52124;SDS011;38119;52.710;6.398;2022-09-03T16:33:05;1.30;;;1.20;;
52124;SDS011;38119;52.710;6.398;2022-09-03T16:35:43;1.52;;;1.38;;
52124;SDS011;38119;52.710;6.398;2022-09-03T16:41:02;3.03;;;1.50;;
52124;SDS011;38119;52.710;6.398;2022-09-03T16:46:44;1.75;;;1.30;;
52124;SDS011;38119;52.710;6.398;2022-09-03T16:49:26;3.00;;;1.42;;
52124;SDS011;38119;52.710;6.398;2022-09-03T16:52:36;1.85;;;1.33;;
52124;SDS011;38119;52.710;6.398;2022-09-03T16:55:46;3.40;;;1.40;;
52124;SDS011;38119;52.710;6.398;2022-09-03T17:10:02;1.92;;;1.27;;
52124;SDS011;38119;52.710;6.398;2022-09-03T17:18:50;1.90;;;1.52;;
52124;SDS011;38119;52.710;6.398;2022-09-03T17:24:43;6.20;;;1.60;;
52124;SDS011;38119;52.710;6.398;2022-09-03T17:35:35;3.85;;;1.45;;
52124;SDS011;38119;52.710;6.398;2022-09-03T17:38:29;2.53;;;1.50;;
52124;SDS011;38119;52.710;6.398;2022-09-03T17:44:32;4.63;;;1.40;;
52124;SDS011;38119;52.710;6.398;2022-09-03T17:50:13;5.00;;;1.55;;
52124;SDS011;38119;52.710;6.398;2022-09-03T17:52:46;4.05;;;2.92;;
52124;SDS011;38119;52.710;6.398;2022-09-03T18:05:46;3.28;;;2.50;;
52124;SDS011;38119;52.710;6.398;2022-09-03T18:09:02;2.85;;;2.10;;
52124;SDS011;38119;52.710;6.398;2022-09-03T18:14:15;8.48;;;5.80;;
52124;SDS011;38119;52.710;6.398;2022-09-03T18:17:08;4.93;;;3.08;;
52124;SDS011;38119;52.710;6.398;2022-09-03T18:19:59;3.15;;;2.10;;
52124;SDS011;38119;52.710;6.398;2022-09-03T18:25:44;2.88;;;2.20;;
52124;SDS011;38119;52.710;6.398;2022-09-03T18:28:45;6.18;;;2.20;;
52124;SDS011;38119;52.710;6.398;2022-09-03T18:31:34;4.32;;;2.40;;
52124;SDS011;38119;52.710;6.398;2022-09-03T18:34:19;4.07;;;2.38;;
52124;SDS011;38119;52.710;6.398;2022-09-03T18:37:14;5.85;;;3.45;;
52124;SDS011;38119;52.710;6.398;2022-09-03T18:40:01;5.18;;;3.22;;
52124;SDS011;38119;52.710;6.398;2022-09-03T18:46:04;5.82;;;3.38;;
52124;SDS011;38119;52.710;6.398;2022-09-03T18:49:15;6.03;;;3.20;;
52124;SDS011;38119;52.710;6.398;2022-09-03T18:58:41;2.90;;;1.80;;
52124;SDS011;38119;52.710;6.398;2022-09-03T19:01:38;3.13;;;2.00;;
52124;SDS011;38119;52.710;6.398;2022-09-03T19:10:48;3.65;;;2.00;;
52124;SDS011;38119;52.710;6.398;2022-09-03T19:13:38;3.17;;;2.13;;
52124;SDS011;38119;52.710;6.398;2022-09-03T19:16:40;5.90;;;2.38;;
52124;SDS011;38119;52.710;6.398;2022-09-03T19:22:36;7.32;;;2.65;;
52124;SDS011;38119;52.710;6.398;2022-09-03T19:25:22;3.03;;;2.00;;
52124;SDS011;38119;52.710;6.398;2022-09-03T19:28:12;5.95;;;2.67;;
52124;SDS011;38119;52.710;6.398;2022-09-03T19:37:14;4.05;;;1.80;;
52124;SDS011;38119;52.710;6.398;2022-09-03T19:52:52;6.22;;;5.50;;
52124;SDS011;38119;52.710;6.398;2022-09-03T19:55:38;7.97;;;3.60;;
52124;SDS011;38119;52.710;6.398;2022-09-03T19:58:28;5.30;;;2.67;;
52124;SDS011;38119;52.710;6.398;2022-09-03T20:01:15;4.72;;;2.60;;
52124;SDS011;38119;52.710;6.398;2022-09-03T20:04:04;3.28;;;2.05;;
52124;SDS011;38119;52.710;6.398;2022-09-03T20:06:55;13.38;;;2.20;;
52124;SDS011;38119;52.710;6.398;2022-09-03T20:09:44;2.50;;;2.03;;
52124;SDS011;38119;52.710;6.398;2022-09-03T20:12:33;4.35;;;2.40;;
52124;SDS011;38119;52.710;6.398;2022-09-03T20:15:04;5.47;;;1.98;;
52124;SDS011;38119;52.710;6.398;2022-09-03T20:20:21;2.80;;;2.00;;
52124;SDS011;38119;52.710;6.398;2022-09-03T20:25:23;4.35;;;2.00;;
52124;SDS011;38119;52.710;6.398;2022-09-03T20:30:50;4.30;;;2.05;;
52124;SDS011;38119;52.710;6.398;2022-09-03T20:39:33;3.80;;;2.10;;
52124;SDS011;38119;52.710;6.398;2022-09-03T20:42:25;4.07;;;1.90;;
52124;SDS011;38119;52.710;6.398;2022-09-03T20:45:22;2.97;;;1.83;;